Terminal Aerodrome Forecast
Issued by NWS

Home | Current Version | Previous Version | Text Only | Print | Product List | Glossary On
Versions: 1 2 3 4 5 6 7 8 9 10 11 12 13 14 15
000
FTPQ31 PGUM 290530
TAFGUM
TAF

TAF
PGSN 290530Z 2906/3006 08011KT P6SM VCTS SCT015CB SCT025 BKN120
      TEMPO 2906/2910 09015G25KT 2SM +SHRA SCT007 OVC015
     FM291100 10011KT P6SM VCSH FEW016 SCT030 BKN120=

USA.gov is the U.S. government's official web portal to all federal, state and local government web resources and services.